Time;durP1;ratioP1;P1;durP2;ratioP2;P2;SDS_P1;SDS_P2;PMS_P1;PMS_P2;Temp;Humidity;BMP_temperature;BMP_pressure;BME280_temperature;BME280_humidity;BME280_pressure;Samples;Min_cycle;Max_cycle;Signal;HPM_P1;HPM_P2
2022/12/28 00:01:08;;;;;;;3.57;1.60;;;4.10;67.60;;;;;;4970846;28;20615;-78
2022/12/28 00:03:34;;;;;;;2.30;1.70;;;4.00;68.10;;;;;;4969747;28;20204;-78
2022/12/28 00:06:00;;;;;;;4.30;2.00;;;4.10;60.40;;;;;;4958842;28;20223;-79
2022/12/28 00:08:25;;;;;;;2.57;1.57;;;4.00;71.30;;;;;;4968641;28;20212;-80
2022/12/28 00:10:51;;;;;;;4.70;1.83;;;3.90;86.90;;;;;;4959216;28;20240;-78
2022/12/28 00:13:16;;;;;;;4.77;1.70;;;3.90;88.80;;;;;;4970494;28;20185;-77
2022/12/28 00:15:42;;;;;;;3.93;1.60;;;3.90;89.50;;;;;;4960240;28;20307;-79
2022/12/28 00:18:07;;;;;;;4.60;2.00;;;4.00;82.60;;;;;;4970458;28;20254;-78
2022/12/28 00:20:33;;;;;;;4.17;1.57;;;3.90;91.30;;;;;;4971084;28;20252;-79
2022/12/28 00:22:58;;;;;;;5.90;1.60;;;4.10;65.40;;;;;;4959976;28;20903;-79
2022/12/28 00:25:24;;;;;;;6.83;1.63;;;4.60;57.70;;;;;;4959834;28;20308;-78
2022/12/28 00:27:49;;;;;;;5.83;1.90;;;4.00;61.70;;;;;;4959517;28;20649;-77
2022/12/28 00:30:15;;;;;;;6.67;1.93;;;4.00;66.00;;;;;;4970732;28;20192;-80
2022/12/28 00:32:40;;;;;;;3.33;1.80;;;4.00;56.90;;;;;;4960940;28;20554;-79
2022/12/28 00:35:06;;;;;;;3.20;1.53;;;4.00;62.50;;;;;;4970262;28;20193;-79
2022/12/28 00:37:32;;;;;;;4.70;1.87;;;4.10;52.50;;;;;;4959879;28;20236;-79
2022/12/28 00:39:58;;;;;;;3.50;1.70;;;4.10;52.10;;;;;;4959914;28;20240;-78
2022/12/28 00:42:23;;;;;;;6.17;1.80;;;4.10;47.60;;;;;;4960741;28;20193;-78
2022/12/28 00:44:49;;;;;;;6.50;1.97;;;4.10;44.40;;;;;;4968927;28;20193;-78
2022/12/28 00:47:14;;;;;;;3.53;1.90;;;4.10;47.00;;;;;;4970189;28;20702;-80
2022/12/28 00:49:40;;;;;;;4.93;1.77;;;4.10;29.70;;;;;;4961307;28;20216;-80
2022/12/28 00:52:05;;;;;;;3.43;1.50;;;4.20;26.30;;;;;;4969608;28;20192;-79
2022/12/28 00:54:31;;;;;;;2.17;1.33;;;4.20;21.90;;;;;;4968902;28;20185;-77
2022/12/28 00:56:57;;;;;;;3.70;1.60;;;4.10;26.80;;;;;;4959025;28;20278;-78
2022/12/28 00:59:22;;;;;;;3.80;1.60;;;4.00;39.00;;;;;;4960221;28;20562;-77
2022/12/28 01:01:48;;;;;;;5.73;1.83;;;3.90;42.30;;;;;;4959504;28;20191;-80
2022/12/28 01:04:13;;;;;;;3.67;1.80;;;3.90;51.80;;;;;;4959906;28;20209;-77
2022/12/28 01:06:39;;;;;;;4.13;1.50;;;3.80;55.60;;;;;;4958203;28;20200;-79
2022/12/28 01:09:04;;;;;;;3.00;1.87;;;3.80;65.50;;;;;;4957370;28;20220;-80
2022/12/28 01:11:30;;;;;;;3.17;1.80;;;3.90;51.80;;;;;;4959628;28;20180;-79
2022/12/28 01:13:59;;;;;;;3.40;1.70;;;3.90;47.70;;;;;;4967456;28;20173;-78
2022/12/28 01:16:27;;;;;;;3.83;2.00;;;3.90;36.80;;;;;;4968613;28;20621;-79
2022/12/28 01:18:58;;;;;;;5.70;2.10;;;3.90;34.90;;;;;;4960065;28;20291;-79
2022/12/28 01:21:26;;;;;;;3.97;1.80;;;4.00;32.40;;;;;;4969170;28;20248;-76
2022/12/28 01:23:54;;;;;;;2.90;1.67;;;4.00;37.70;;;;;;4967537;28;20224;-78
2022/12/28 01:26:20;;;;;;;5.17;2.13;;;5.20;32.30;;;;;;4956434;28;20189;-80
2022/12/28 01:28:46;;;;;;;2.90;1.50;;;4.00;32.30;;;;;;4957466;28;20220;-77
2022/12/28 01:31:15;;;;;;;6.27;1.60;;;3.90;34.20;;;;;;4959618;28;20185;-79
2022/12/28 01:33:41;;;;;;;3.80;1.70;;;4.00;32.50;;;;;;4958185;28;20651;-77
2022/12/28 01:36:14;;;;;;;3.33;1.80;;;3.90;43.20;;;;;;4958848;28;20193;-78
2022/12/28 01:38:40;;;;;;;3.50;1.70;;;3.90;36.80;;;;;;4972168;28;20217;-78
2022/12/28 01:41:07;;;;;;;6.57;1.97;;;4.00;35.40;;;;;;4966447;28;20580;-77
2022/12/28 01:43:44;;;;;;;3.03;1.50;;;4.10;28.50;;;;;;4956784;28;20185;-79
2022/12/28 01:46:16;;;;;;;2.13;1.53;;;4.10;25.20;;;;;;4956945;28;20239;-77
2022/12/28 01:48:53;;;;;;;4.67;1.73;;;4.10;27.50;;;;;;4956609;28;20208;-79
2022/12/28 01:51:21;;;;;;;5.37;1.80;;;4.10;27.60;;;;;;4958041;28;20188;-80
2022/12/28 01:53:51;;;;;;;5.47;2.03;;;4.10;26.40;;;;;;4966034;28;20206;-80
2022/12/28 01:56:16;;;;;;;4.13;1.80;;;4.20;22.00;;;;;;4972662;28;20184;-80
2022/12/28 01:58:42;;;;;;;3.63;1.60;;;4.20;23.00;;;;;;4959160;28;20750;-77
2022/12/28 02:01:08;;;;;;;4.73;2.10;;;4.20;24.20;;;;;;4968264;28;20228;-79
2022/12/28 02:03:35;;;;;;;3.53;1.47;;;4.20;23.30;;;;;;4959795;28;20264;-77
2022/12/28 02:06:05;;;;;;;7.00;1.83;;;4.20;19.40;;;;;;4974626;28;20199;-81
2022/12/28 02:08:57;;;;;;;4.23;1.63;;;4.50;20.60;;;;;;4959455;28;20303;-79
2022/12/28 02:11:23;;;;;;;3.23;1.47;;;4.20;27.40;;;;;;4968674;28;20173;-79
2022/12/28 02:13:51;;;;;;;5.53;1.80;;;4.30;24.00;;;;;;4968192;28;20193;-79
2022/12/28 02:16:17;;;;;;;5.13;2.20;;;4.20;25.10;;;;;;4959567;28;20189;-78
2022/12/28 02:18:44;;;;;;;4.57;1.80;;;4.30;19.70;;;;;;4969454;28;20205;-80
2022/12/28 02:21:12;;;;;;;5.80;2.23;;;4.30;18.70;;;;;;4968950;28;20208;-80
2022/12/28 02:24:09;;;;;;;4.27;1.67;;;4.30;17.50;;;;;;4957599;28;20189;-78
2022/12/28 02:26:45;;;;;;;5.60;2.13;;;4.30;21.40;;;;;;4964347;28;20729;-78
2022/12/28 02:29:25;;;;;;;7.83;2.17;;;4.40;15.20;;;;;;4960414;28;20219;-79
2022/12/28 02:31:56;;;;;;;4.17;1.80;;;4.40;13.10;;;;;;4959486;28;20189;-79
2022/12/28 02:34:36;;;;;;;2.97;1.73;;;4.40;15.00;;;;;;4959066;28;20189;-79
2022/12/28 02:37:17;;;;;;;2.57;1.73;;;4.40;17.80;;;;;;4969000;28;20195;-79
2022/12/28 02:40:08;;;;;;;5.73;2.23;;;4.50;17.20;;;;;;4956244;28;20208;-81
2022/12/28 02:42:36;;;;;;;3.97;2.07;;;4.50;16.30;;;;;;4968173;28;20189;-78
2022/12/28 02:50:57;;;;;;;2.57;1.70;;;4.50;12.40;;;;;;4969335;28;20692;-79
2022/12/28 02:53:45;;;;;;;3.03;2.00;;;4.50;16.20;;;;;;4967109;28;20185;-80
2022/12/28 02:56:41;;;;;;;7.00;1.80;;;4.50;11.80;;;;;;4958691;28;20192;-79
2022/12/28 02:59:32;;;;;;;4.27;1.80;;;4.50;18.80;;;;;;4961387;28;20212;-79
2022/12/28 03:02:05;;;;;;;4.70;1.80;;;5.50;15.50;;;;;;4968588;28;20189;-80
2022/12/28 03:05:05;;;;;;;5.07;2.27;;;4.50;16.60;;;;;;4958160;28;20210;-79
2022/12/28 03:08:18;;;;;;;4.20;1.70;;;4.60;12.80;;;;;;4966351;28;20195;-78
2022/12/28 03:11:12;;;;;;;4.57;2.10;;;4.60;12.80;;;;;;4968732;28;20177;-78
2022/12/28 03:13:44;;;;;;;4.10;1.80;;;4.60;13.20;;;;;;4967134;28;20248;-81
2022/12/28 03:16:28;;;;;;;5.97;1.93;;;4.60;18.20;;;;;;4967635;28;20189;-80
2022/12/28 03:33:05;;;;;;;3.73;1.60;;;4.80;29.50;;;;;;4925642;29;20193;-80
2022/12/28 03:35:42;;;;;;;2.63;1.67;;;4.80;14.60;;;;;;4925541;28;20247;-78
2022/12/28 03:38:11;;;;;;;4.63;1.97;;;4.90;12.40;;;;;;4956583;28;20212;-79
2022/12/28 03:40:48;;;;;;;4.17;1.70;;;5.00;11.30;;;;;;4955532;28;20209;-78
2022/12/28 03:46:12;;;;;;;3.60;1.80;;;5.10;9.80;;;;;;4967466;28;20276;-79
2022/12/28 03:48:39;;;;;;;4.87;1.80;;;5.10;10.30;;;;;;4956311;28;20236;-79
2022/12/28 03:51:05;;;;;;;5.07;2.17;;;5.10;11.90;;;;;;4958635;28;20220;-79
2022/12/28 03:53:46;;;;;;;3.40;1.50;;;5.10;8.70;;;;;;4967811;28;20263;-79
2022/12/28 03:56:15;;;;;;;4.37;2.00;;;5.10;10.80;;;;;;4966917;28;20181;-81
2022/12/28 03:58:41;;;;;;;8.97;2.37;;;5.10;10.80;;;;;;4965041;28;20730;-79
2022/12/28 04:01:06;;;;;;;3.20;1.60;;;5.10;11.40;;;;;;4966382;28;20257;-78
2022/12/28 04:03:32;;;;;;;3.30;1.80;;;5.10;11.10;;;;;;4967926;28;20268;-81
2022/12/28 04:05:58;;;;;;;3.13;1.67;;;5.20;9.50;;;;;;4960084;28;20189;-80
2022/12/28 04:08:23;;;;;;;2.53;1.70;;;5.20;9.20;;;;;;4959859;28;20212;-79
2022/12/28 04:10:49;;;;;;;3.53;1.80;;;5.30;10.50;;;;;;4969540;28;20177;-81
2022/12/28 04:13:15;;;;;;;5.87;1.83;;;5.20;12.20;;;;;;4969406;28;20197;-78
2022/12/28 04:15:40;;;;;;;3.90;1.80;;;5.10;14.70;;;;;;4960926;28;20695;-79
2022/12/28 04:18:06;;;;;;;3.97;1.87;;;5.10;17.70;;;;;;4958605;28;20215;-78
2022/12/28 04:20:31;;;;;;;3.47;1.47;;;5.10;19.40;;;;;;4960998;28;20188;-78
2022/12/28 04:22:57;;;;;;;3.53;1.70;;;5.10;20.90;;;;;;4960966;28;20180;-80
2022/12/28 04:25:22;;;;;;;3.47;1.83;;;5.20;18.20;;;;;;4959651;28;20199;-77
2022/12/28 04:27:48;;;;;;;5.33;1.83;;;5.20;19.40;;;;;;4968978;28;20208;-77
2022/12/28 04:30:14;;;;;;;3.47;1.67;;;5.20;20.00;;;;;;4969606;28;20189;-79
2022/12/28 04:32:39;;;;;;;4.57;1.60;;;5.20;22.10;;;;;;4969766;28;21262;-79
2022/12/28 04:35:05;;;;;;;5.10;1.83;;;5.20;38.10;;;;;;4959435;28;20235;-80
2022/12/28 04:37:31;;;;;;;5.53;1.67;;;5.20;28.10;;;;;;4956803;28;20662;-77
2022/12/28 04:39:56;;;;;;;3.50;1.90;;;5.20;27.00;;;;;;4959418;28;20284;-80
2022/12/28 04:42:22;;;;;;;4.90;1.80;;;5.20;29.00;;;;;;4958135;28;20670;-78
2022/12/28 04:44:48;;;;;;;3.33;1.53;;;5.20;32.70;;;;;;4967753;28;20180;-79
2022/12/28 04:47:13;;;;;;;4.47;1.80;;;5.20;38.00;;;;;;4960153;28;20659;-80
2022/12/28 04:49:39;;;;;;;5.57;1.90;;;5.20;45.90;;;;;;4967266;28;20215;-79
2022/12/28 04:52:04;;;;;;;3.23;1.67;;;5.20;49.50;;;;;;4968516;28;20185;-78
2022/12/28 04:54:30;;;;;;;4.07;1.70;;;5.20;47.20;;;;;;4969238;28;20188;-79
2022/12/28 04:56:55;;;;;;;4.37;1.80;;;5.20;59.30;;;;;;4960532;28;20181;-80
2022/12/28 04:59:21;;;;;;;2.20;1.60;;;5.20;57.20;;;;;;4970497;28;20208;-78
2022/12/28 05:01:47;;;;;;;2.63;1.93;;;5.30;60.20;;;;;;4971415;28;20197;-77
2022/12/28 05:04:12;;;;;;;3.17;1.50;;;5.20;61.40;;;;;;4961197;28;20231;-80
2022/12/28 05:06:38;;;;;;;1.60;1.40;;;5.30;63.80;;;;;;4959860;28;20211;-80
2022/12/28 05:09:03;;;;;;;2.37;1.90;;;5.20;59.80;;;;;;4968908;28;20721;-79
2022/12/28 05:11:30;;;;;;;4.80;1.97;;;5.30;54.00;;;;;;4958307;28;20223;-79
2022/12/28 05:13:56;;;;;;;1.90;1.70;;;5.30;53.40;;;;;;4958476;28;20280;-81
2022/12/28 05:16:24;;;;;;;3.20;1.60;;;5.20;55.00;;;;;;4958763;28;20185;-79
2022/12/28 05:18:49;;;;;;;4.03;1.90;;;5.30;56.70;;;;;;4971412;28;20209;-80
2022/12/28 05:21:21;;;;;;;3.40;1.73;;;5.40;61.50;;;;;;4971695;28;21132;-80
2022/12/28 05:23:47;;;;;;;3.53;1.93;;;5.40;62.60;;;;;;4970921;28;21222;-82
2022/12/28 05:26:20;;;;;;;3.40;2.00;;;5.40;71.50;;;;;;4960885;28;20228;-80
2022/12/28 05:28:46;;;;;;;2.53;2.00;;;5.40;78.90;;;;;;4960155;28;20223;-82
2022/12/28 05:31:15;;;;;;;2.77;2.00;;;5.30;90.80;;;;;;4962112;28;20215;-82
2022/12/28 05:33:41;;;;;;;4.43;1.93;;;5.30;98.00;;;;;;4959024;28;20605;-81
2022/12/28 05:36:19;;;;;;;3.43;1.90;;;5.30;99.90;;;;;;4959632;28;20185;-79
2022/12/28 05:38:45;;;;;;;3.87;2.20;;;5.40;96.30;;;;;;4968365;28;20274;-80
2022/12/28 05:41:17;;;;;;;3.37;2.17;;;5.40;98.30;;;;;;4959169;28;20284;-79
2022/12/28 05:43:44;;;;;;;4.90;2.20;;;5.40;96.80;;;;;;4957361;28;20187;-80
2022/12/28 05:46:13;;;;;;;2.43;2.03;;;5.40;98.40;;;;;;4968141;28;20189;-78
2022/12/28 05:48:40;;;;;;;2.80;1.63;;;5.40;99.20;;;;;;4966977;28;20213;-79
2022/12/28 05:51:08;;;;;;;2.30;2.10;;;5.40;99.90;;;;;;4958830;28;20674;-80
2022/12/28 05:53:35;;;;;;;3.03;1.90;;;5.50;96.60;;;;;;4970422;28;20180;-80
2022/12/28 05:56:07;;;;;;;2.87;1.80;;;5.50;99.90;;;;;;4969053;28;20589;-81
2022/12/28 05:58:33;;;;;;;3.60;1.90;;;5.50;97.90;;;;;;4968858;28;20196;-77
2022/12/28 06:01:07;;;;;;;3.20;1.87;;;5.50;96.00;;;;;;4957525;28;20185;-78
2022/12/28 06:03:33;;;;;;;2.10;1.73;;;5.50;96.30;;;;;;4969171;28;20191;-78
2022/12/28 06:06:14;;;;;;;3.80;2.00;;;5.50;99.90;;;;;;4968258;28;20189;-79
2022/12/28 06:08:40;;;;;;;5.03;2.03;;;5.40;99.90;;;;;;4965112;28;20209;-78
2022/12/28 06:11:09;;;;;;;2.47;2.03;;;5.40;99.90;;;;;;4965804;28;20185;-80
2022/12/28 06:13:35;;;;;;;1.97;1.70;;;5.50;99.90;;;;;;4955104;28;20215;-80
2022/12/28 06:16:05;;;;;;;2.53;1.57;;;5.50;99.30;;;;;;4957168;28;20651;-79
2022/12/28 06:18:31;;;;;;;3.37;2.20;;;5.50;99.90;;;;;;4957359;28;20426;-79
2022/12/28 06:21:04;;;;;;;1.70;1.50;;;5.50;99.90;;;;;;4956202;28;20887;-78
2022/12/28 06:23:30;;;;;;;2.67;1.70;;;5.60;99.90;;;;;;4970600;28;20188;-78
2022/12/28 06:26:01;;;;;;;2.13;1.67;;;5.60;98.80;;;;;;4955791;28;20185;-78
2022/12/28 06:28:27;;;;;;;3.07;1.70;;;5.70;89.90;;;;;;4956388;28;20235;-79
2022/12/28 06:31:01;;;;;;;2.37;1.50;;;5.80;85.40;;;;;;4957847;28;20185;-79
2022/12/28 06:33:26;;;;;;;2.93;1.60;;;5.90;78.00;;;;;;4967697;28;20183;-79
2022/12/28 06:35:52;;;;;;;3.43;1.50;;;6.00;70.70;;;;;;4966897;28;20177;-78
2022/12/28 06:38:17;;;;;;;1.93;1.57;;;6.10;54.10;;;;;;4956034;28;20220;-78
2022/12/28 06:40:43;;;;;;;2.17;1.90;;;6.20;52.30;;;;;;4965915;28;20188;-79
2022/12/28 06:43:08;;;;;;;2.60;1.70;;;6.20;50.00;;;;;;4955327;28;20197;-78
2022/12/28 06:45:34;;;;;;;2.30;1.70;;;6.30;45.80;;;;;;4955993;28;20185;-80
2022/12/28 06:47:59;;;;;;;4.40;1.80;;;6.30;44.70;;;;;;4957116;28;20275;-80
2022/12/28 06:50:25;;;;;;;3.17;1.80;;;6.30;47.40;;;;;;4967114;28;20185;-79
2022/12/28 06:52:50;;;;;;;2.23;1.60;;;6.40;44.00;;;;;;4957401;28;20519;-78
2022/12/28 06:55:16;;;;;;;2.73;2.10;;;6.50;35.60;;;;;;4957345;28;20243;-79
2022/12/28 06:57:41;;;;;;;3.20;1.93;;;6.50;37.70;;;;;;4956460;28;20180;-79
2022/12/28 07:00:08;;;;;;;3.27;1.70;;;6.40;35.30;;;;;;4965817;28;20189;-78
2022/12/28 07:02:33;;;;;;;3.23;2.00;;;6.50;30.80;;;;;;4965256;28;20212;-77
2022/12/28 07:04:59;;;;;;;2.30;1.63;;;6.60;32.00;;;;;;4953948;28;20623;-78
2022/12/28 07:07:24;;;;;;;1.67;1.53;;;6.50;35.70;;;;;;4965019;28;20193;-78
2022/12/28 07:09:50;;;;;;;3.30;1.60;;;6.50;38.50;;;;;;4964240;28;20635;-78
2022/12/28 07:12:15;;;;;;;1.97;1.70;;;6.40;46.00;;;;;;4964940;28;20655;-79
2022/12/28 07:14:41;;;;;;;2.17;1.70;;;6.40;41.10;;;;;;4952216;28;20359;-78
2022/12/28 07:17:06;;;;;;;4.00;1.83;;;6.50;42.90;;;;;;4955664;28;20196;-78
2022/12/28 07:19:32;;;;;;;2.60;1.90;;;6.50;45.20;;;;;;4955735;28;20213;-77
2022/12/28 07:21:57;;;;;;;2.07;1.83;;;6.50;46.50;;;;;;4966028;28;20193;-78
2022/12/28 07:24:23;;;;;;;2.73;1.70;;;6.50;62.70;;;;;;4966401;28;20833;-78
2022/12/28 07:26:51;;;;;;;2.33;1.80;;;6.40;64.00;;;;;;4960422;28;20169;-80
2022/12/28 07:29:16;;;;;;;2.90;1.80;;;6.40;71.30;;;;;;4967431;28;20209;-78
2022/12/28 07:31:42;;;;;;;3.03;1.90;;;6.40;74.70;;;;;;4955094;28;20528;-77
2022/12/28 07:34:07;;;;;;;2.47;1.67;;;6.40;76.50;;;;;;4957071;28;20196;-78
2022/12/28 07:36:33;;;;;;;3.27;2.20;;;6.30;65.10;;;;;;4955425;28;20241;-77
2022/12/28 07:38:59;;;;;;;2.70;1.77;;;6.40;68.70;;;;;;4957830;28;20228;-79
2022/12/28 07:41:31;;;;;;;2.63;1.93;;;6.50;64.50;;;;;;4967422;28;20288;-78
2022/12/28 07:43:58;;;;;;;2.60;2.10;;;6.40;66.30;;;;;;4956978;28;20185;-79
2022/12/28 07:46:26;;;;;;;2.30;2.07;;;6.50;64.70;;;;;;4958675;28;20196;-77
2022/12/28 07:48:53;;;;;;;2.13;1.90;;;6.50;67.60;;;;;;4967993;28;20299;-80
2022/12/28 07:51:26;;;;;;;3.77;2.17;;;6.50;64.20;;;;;;4966866;28;20188;-78
2022/12/28 07:53:52;;;;;;;2.20;2.00;;;6.50;73.10;;;;;;4967561;28;20647;-79
2022/12/28 07:56:19;;;;;;;2.90;2.00;;;6.60;67.00;;;;;;4969713;28;20194;-78
2022/12/28 07:58:53;;;;;;;2.93;1.90;;;6.60;69.70;;;;;;4960167;28;20236;-80
2022/12/28 08:01:21;;;;;;;4.03;2.20;;;6.60;95.90;;;;;;4970099;28;20196;-78
2022/12/28 08:03:46;;;;;;;3.33;2.20;;;6.50;99.90;;;;;;4959069;28;20197;-81
2022/12/28 08:06:18;;;;;;;4.90;2.33;;;6.50;99.90;;;;;;4969320;28;20207;-78
2022/12/28 08:08:45;;;;;;;2.80;2.17;;;6.40;99.90;;;;;;4959701;28;20325;-79
2022/12/28 08:11:14;;;;;;;3.00;2.23;;;6.40;99.90;;;;;;4959617;28;20181;-79
2022/12/28 08:13:42;;;;;;;2.53;2.07;;;6.40;99.90;;;;;;4977411;28;20180;-79
2022/12/28 08:16:09;;;;;;;4.03;2.50;;;6.50;99.90;;;;;;4969647;28;20667;-78
2022/12/28 08:18:35;;;;;;;2.37;1.90;;;6.50;99.90;;;;;;4969790;28;20212;-79
2022/12/28 08:21:05;;;;;;;1.73;1.63;;;6.60;99.90;;;;;;4958115;28;20197;-79
2022/12/28 08:23:31;;;;;;;3.40;2.20;;;6.60;99.90;;;;;;4960295;28;20195;-78
2022/12/28 08:26:27;;;;;;;3.87;1.87;;;6.70;99.90;;;;;;4968389;28;20189;-82
2022/12/28 08:28:56;;;;;;;2.30;2.00;;;6.80;95.70;;;;;;4974916;28;20228;-78
2022/12/28 08:31:28;;;;;;;2.17;1.97;;;6.80;95.50;;;;;;4969963;28;20212;-78
2022/12/28 08:33:55;;;;;;;2.60;2.07;;;6.90;95.10;;;;;;4959954;28;20191;-79
2022/12/28 08:36:21;;;;;;;2.83;1.83;;;6.90;93.20;;;;;;4959927;28;20675;-76
2022/12/28 08:38:47;;;;;;;2.20;2.00;;;7.00;83.20;;;;;;4969602;28;20240;-78
2022/12/28 08:41:15;;;;;;;3.57;2.10;;;7.00;86.70;;;;;;4968988;28;20694;-78
2022/12/28 08:43:42;;;;;;;2.70;1.90;;;7.10;80.00;;;;;;4968428;28;20627;-79
2022/12/28 08:46:11;;;;;;;4.20;2.10;;;7.10;81.80;;;;;;4968387;28;20204;-80
2022/12/28 08:48:38;;;;;;;2.47;2.00;;;7.10;76.70;;;;;;4966277;28;20774;-80
2022/12/28 08:51:10;;;;;;;2.20;1.70;;;7.10;79.80;;;;;;4959104;28;20196;-80
2022/12/28 08:53:36;;;;;;;3.07;1.90;;;7.20;80.40;;;;;;4969121;28;20228;-79
2022/12/28 08:56:26;;;;;;;3.10;1.90;;;7.20;71.80;;;;;;4962634;28;20299;-80
2022/12/28 08:58:52;;;;;;;1.77;1.67;;;7.20;77.30;;;;;;4957074;28;20208;-79
2022/12/28 09:01:27;;;;;;;3.33;1.70;;;7.20;85.20;;;;;;4967011;28;20647;-79
2022/12/28 09:03:56;;;;;;;1.90;1.63;;;7.20;79.80;;;;;;4968777;28;20807;-78
2022/12/28 09:06:33;;;;;;;2.73;1.70;;;7.30;73.00;;;;;;4967113;28;20192;-79
2022/12/28 09:08:59;;;;;;;2.20;1.67;;;7.30;74.20;;;;;;4968460;28;20224;-79
2022/12/28 09:11:26;;;;;;;1.93;1.70;;;7.30;75.80;;;;;;4957327;28;20200;-78
2022/12/28 09:13:51;;;;;;;2.80;2.30;;;7.30;75.70;;;;;;4967246;28;20185;-78
2022/12/28 09:16:22;;;;;;;2.90;1.67;;;7.40;73.80;;;;;;4957747;28;20199;-79
2022/12/28 09:18:55;;;;;;;1.70;1.50;;;7.40;68.00;;;;;;4965959;28;20655;-78
2022/12/28 09:21:23;;;;;;;3.37;2.00;;;7.40;74.50;;;;;;4954893;28;20244;-79
2022/12/28 09:23:48;;;;;;;2.00;1.70;;;7.50;73.60;;;;;;4956306;28;20196;-80
2022/12/28 09:26:19;;;;;;;1.90;1.77;;;7.50;72.10;;;;;;4966191;28;20189;-77
2022/12/28 09:28:47;;;;;;;2.83;1.70;;;7.50;70.60;;;;;;4965607;28;20456;-79
2022/12/28 09:31:13;;;;;;;1.60;1.50;;;7.50;72.70;;;;;;4969149;28;20984;-79
2022/12/28 09:36:23;;;;;;;2.00;1.37;;;7.60;80.60;;;;;;4966330;28;20191;-79
2022/12/28 09:38:50;;;;;;;2.37;1.77;;;7.60;78.00;;;;;;4966300;28;20286;-79
2022/12/28 09:41:27;;;;;;;1.77;1.43;;;7.20;71.10;;;;;;4957201;28;20535;-80
2022/12/28 09:44:03;;;;;;;1.53;1.30;;;7.70;65.60;;;;;;4968640;28;20545;-78
2022/12/28 09:46:33;;;;;;;2.43;1.50;;;7.80;65.30;;;;;;4966408;28;20181;-80
2022/12/28 09:49:00;;;;;;;1.33;1.23;;;7.80;66.60;;;;;;4956636;28;20247;-80
2022/12/28 09:51:33;;;;;;;2.00;1.50;;;7.80;71.30;;;;;;4966218;28;20185;-81
2022/12/28 09:53:58;;;;;;;1.43;1.33;;;7.80;78.50;;;;;;4973601;28;20181;-79
2022/12/28 09:56:39;;;;;;;2.33;1.33;;;7.80;79.40;;;;;;4956426;28;20191;-79
2022/12/28 09:59:07;;;;;;;2.43;1.43;;;7.80;74.70;;;;;;4966169;28;20216;-79
2022/12/28 10:01:38;;;;;;;1.30;1.20;;;7.90;60.60;;;;;;4965701;28;20188;-80
2022/12/28 10:04:04;;;;;;;1.70;1.30;;;7.90;66.00;;;;;;4963694;28;20213;-80
2022/12/28 10:06:35;;;;;;;1.40;1.30;;;7.90;64.70;;;;;;4955525;28;20200;-79
2022/12/28 10:09:03;;;;;;;2.03;1.37;;;7.30;72.30;;;;;;4965905;28;20213;-78
2022/12/28 10:11:39;;;;;;;2.13;1.13;;;7.90;65.50;;;;;;4966159;28;20562;-80
2022/12/28 10:14:24;;;;;;;2.33;1.40;;;7.80;73.30;;;;;;4965564;28;20202;-80
2022/12/28 10:16:50;;;;;;;1.57;1.47;;;7.80;77.90;;;;;;4954359;28;20185;-77
2022/12/28 10:19:21;;;;;;;1.90;1.30;;;7.90;76.70;;;;;;4956002;28;20212;-79
2022/12/28 10:22:03;;;;;;;2.37;1.73;;;7.80;80.40;;;;;;4964941;28;20184;-81
2022/12/28 10:24:29;;;;;;;2.67;1.57;;;7.90;90.30;;;;;;4977475;28;20192;-80
2022/12/28 10:26:58;;;;;;;2.50;1.60;;;7.80;78.70;;;;;;4965612;28;20579;-81
2022/12/28 10:29:25;;;;;;;1.63;1.53;;;7.80;90.90;;;;;;4972455;28;20219;-81
2022/12/28 10:32:00;;;;;;;1.70;1.60;;;7.90;83.70;;;;;;4959077;28;20319;-83
2022/12/28 10:34:27;;;;;;;1.63;1.50;;;7.80;88.20;;;;;;4955320;28;21255;-79
2022/12/28 10:36:54;;;;;;;2.60;1.73;;;7.70;93.10;;;;;;4966114;28;20192;-80
2022/12/28 10:39:28;;;;;;;2.93;1.50;;;7.70;98.10;;;;;;4952761;28;20209;-81
2022/12/28 10:41:55;;;;;;;1.90;1.70;;;7.80;95.20;;;;;;4963800;28;20189;-78
2022/12/28 10:44:31;;;;;;;2.10;1.40;;;7.70;96.80;;;;;;4947638;28;20259;-79
2022/12/28 10:47:00;;;;;;;1.77;1.50;;;7.70;99.90;;;;;;4963793;28;20190;-81
2022/12/28 10:49:28;;;;;;;3.10;1.53;;;7.70;99.90;;;;;;4963886;28;20308;-80
2022/12/28 10:52:25;;;;;;;2.37;2.00;;;7.80;99.90;;;;;;4958968;28;20180;-81
2022/12/28 10:54:51;;;;;;;2.60;1.80;;;7.90;98.00;;;;;;4949731;28;20261;-79
2022/12/28 10:57:17;;;;;;;2.47;1.70;;;7.90;99.00;;;;;;4957022;28;20643;-79
2022/12/28 10:59:45;;;;;;;2.50;2.30;;;8.80;95.30;;;;;;4955282;28;20205;-79
2022/12/28 11:02:25;;;;;;;2.90;1.60;;;8.00;97.20;;;;;;4958154;28;20197;-79
2022/12/28 11:04:53;;;;;;;3.07;1.70;;;8.00;92.40;;;;;;4966888;28;20212;-81
2022/12/28 11:07:36;;;;;;;3.00;2.40;;;8.00;94.80;;;;;;4957130;28;20203;-79
2022/12/28 11:10:23;;;;;;;1.80;1.70;;;8.00;94.20;;;;;;4968509;28;21117;-81
2022/12/28 11:12:50;;;;;;;3.13;1.87;;;8.00;95.40;;;;;;4960077;28;20227;-79
2022/12/28 11:15:19;;;;;;;2.63;1.93;;;8.00;95.50;;;;;;4970710;28;20243;-79
2022/12/28 11:17:54;;;;;;;2.47;2.10;;;8.00;96.70;;;;;;4971182;28;20204;-80
2022/12/28 11:20:30;;;;;;;2.67;2.00;;;8.10;93.30;;;;;;4970879;28;20181;-79
2022/12/28 11:22:56;;;;;;;2.73;1.90;;;8.10;98.90;;;;;;4959419;28;20176;-78
2022/12/28 11:25:32;;;;;;;3.57;2.13;;;8.10;91.70;;;;;;4960636;28;20287;-80
2022/12/28 11:27:59;;;;;;;4.33;2.67;;;8.20;90.30;;;;;;4970208;28;20234;-79
2022/12/28 11:30:24;;;;;;;3.37;1.80;;;8.30;80.70;;;;;;4960690;28;20224;-80
2022/12/28 11:32:57;;;;;;;2.70;2.00;;;8.40;67.00;;;;;;4970457;28;20185;-79
2022/12/28 11:35:28;;;;;;;2.03;1.83;;;8.40;65.50;;;;;;4970041;28;20236;-79
2022/12/28 11:37:56;;;;;;;4.27;1.90;;;8.80;71.90;;;;;;4970234;28;20264;-78
2022/12/28 11:40:45;;;;;;;2.20;2.00;;;8.50;61.50;;;;;;4968967;28;20184;-80
2022/12/28 11:43:29;;;;;;;2.43;2.03;;;8.50;54.20;;;;;;4970544;28;20190;-79
2022/12/28 11:46:03;;;;;;;2.20;2.00;;;8.50;58.80;;;;;;4971470;28;20185;-79
2022/12/28 11:48:40;;;;;;;2.37;2.10;;;8.50;59.20;;;;;;4970939;28;20228;-78
2022/12/28 11:51:28;;;;;;;4.50;2.13;;;8.50;56.00;;;;;;4969664;28;20185;-80
2022/12/28 11:53:59;;;;;;;3.40;2.27;;;8.50;54.20;;;;;;4970707;28;20177;-78
2022/12/28 11:56:46;;;;;;;2.47;1.70;;;8.50;55.10;;;;;;4969956;28;21149;-80
2022/12/28 11:59:26;;;;;;;2.77;1.80;;;8.50;55.60;;;;;;4970527;28;20718;-81
2022/12/28 12:02:22;;;;;;;2.63;2.20;;;8.50;50.80;;;;;;4969495;28;20196;-78
2022/12/28 12:04:47;;;;;;;3.33;1.90;;;8.50;57.00;;;;;;4971017;28;20204;-82
2022/12/28 12:07:16;;;;;;;2.90;2.10;;;8.50;55.00;;;;;;4961451;28;20666;-81
2022/12/28 12:09:44;;;;;;;3.00;1.93;;;8.50;51.40;;;;;;4970941;28;20213;-81
2022/12/28 12:12:13;;;;;;;2.67;1.90;;;8.50;45.30;;;;;;4971144;28;20598;-80
2022/12/28 12:14:43;;;;;;;2.67;1.97;;;8.50;46.80;;;;;;4961937;28;20568;-80
2022/12/28 12:17:27;;;;;;;3.20;1.87;;;8.50;52.70;;;;;;4959574;28;20192;-81
2022/12/28 12:19:57;;;;;;;2.13;1.60;;;8.60;46.10;;;;;;4970185;28;20208;-80
2022/12/28 12:22:28;;;;;;;1.50;1.40;;;8.60;46.30;;;;;;4958890;28;20181;-80
2022/12/28 12:25:14;;;;;;;2.23;1.30;;;8.60;45.80;;;;;;4968899;28;20185;-80
2022/12/28 12:27:43;;;;;;;3.33;1.60;;;8.60;45.70;;;;;;4969495;28;20968;-80
2022/12/28 12:30:17;;;;;;;1.63;1.50;;;8.60;41.60;;;;;;4968000;28;20214;-79
2022/12/28 12:32:57;;;;;;;5.30;1.90;;;8.60;46.20;;;;;;4970163;28;20267;-79
2022/12/28 12:36:02;;;;;;;1.73;1.03;;;8.50;44.60;;;;;;4966208;28;20184;-79
2022/12/28 12:38:46;;;;;;;1.93;1.23;;;8.60;47.10;;;;;;4956780;28;20577;-80
2022/12/28 12:41:30;;;;;;;1.93;1.40;;;8.60;53.60;;;;;;4968485;28;20196;-79
2022/12/28 12:44:18;;;;;;;1.60;1.23;;;8.60;65.30;;;;;;4968204;28;20518;-80
2022/12/28 12:47:10;;;;;;;2.57;1.17;;;8.60;69.90;;;;;;4966432;28;21105;-80
2022/12/28 12:49:56;;;;;;;1.20;1.10;;;8.60;65.80;;;;;;4966762;28;20279;-80
2022/12/28 12:52:50;;;;;;;1.53;0.93;;;8.50;53.50;;;;;;4967139;28;20753;-79
2022/12/28 12:55:35;;;;;;;2.33;1.37;;;8.50;75.20;;;;;;4957914;28;20192;-79
2022/12/28 12:58:14;;;;;;;2.20;1.20;;;8.60;62.90;;;;;;4957823;28;21137;-79
2022/12/28 13:00:43;;;;;;;1.47;1.00;;;8.60;47.10;;;;;;4968164;28;21251;-78
2022/12/28 13:03:18;;;;;;;1.37;1.10;;;8.70;44.70;;;;;;4966709;28;20224;-80
2022/12/28 13:05:53;;;;;;;2.27;1.10;;;8.70;48.20;;;;;;4967904;28;20227;-79
2022/12/28 13:08:36;;;;;;;1.73;1.00;;;8.60;51.40;;;;;;4959170;28;20212;-78
2022/12/28 13:11:02;;;;;;;2.33;1.20;;;8.70;37.50;;;;;;4967427;28;20177;-78
2022/12/28 13:13:32;;;;;;;1.47;1.00;;;8.90;47.40;;;;;;4968832;28;20866;-79
2022/12/28 13:16:02;;;;;;;1.80;1.10;;;8.70;41.40;;;;;;4966191;28;20181;-80
2022/12/28 13:18:27;;;;;;;1.70;1.40;;;8.70;36.60;;;;;;4967565;28;20232;-79
2022/12/28 13:21:02;;;;;;;2.37;1.10;;;8.60;39.40;;;;;;4958983;28;20219;-79
2022/12/28 13:23:30;;;;;;;1.67;1.13;;;8.70;35.70;;;;;;4961940;28;20761;-80
2022/12/28 13:25:59;;;;;;;2.27;1.10;;;8.70;37.30;;;;;;4962124;28;20192;-80
2022/12/28 13:28:34;;;;;;;2.10;1.17;;;8.80;31.70;;;;;;4967412;28;20612;-79
2022/12/28 13:31:09;;;;;;;1.70;1.20;;;8.70;33.60;;;;;;4966694;28;20212;-81
2022/12/28 13:33:36;;;;;;;4.60;2.07;;;8.70;34.00;;;;;;4957614;28;20848;-81
2022/12/28 13:36:15;;;;;;;5.63;2.53;;;8.70;33.30;;;;;;4966292;28;20181;-80
2022/12/28 13:38:41;;;;;;;1.63;1.40;;;8.70;30.00;;;;;;4967310;28;20199;-81
2022/12/28 13:41:18;;;;;;;2.93;1.50;;;8.70;28.70;;;;;;4955506;28;20184;-80